sensor_id;sensor_type;location;lat;lon;timestamp;P1;durP1;ratioP1;P2;durP2;ratioP2
68947;SDS011;55996;49.546;7.400;2024-02-21T00:02:24;18.33;;;9.00;;
68947;SDS011;55996;49.546;7.400;2024-02-21T00:04:50;17.07;;;9.13;;
68947;SDS011;55996;49.546;7.400;2024-02-21T00:07:15;16.23;;;8.80;;
68947;SDS011;55996;49.546;7.400;2024-02-21T00:09:41;19.63;;;8.63;;
68947;SDS011;55996;49.546;7.400;2024-02-21T00:12:06;13.73;;;8.57;;
68947;SDS011;55996;49.546;7.400;2024-02-21T00:14:32;18.93;;;8.90;;
68947;SDS011;55996;49.546;7.400;2024-02-21T00:16:57;18.77;;;8.60;;
68947;SDS011;55996;49.546;7.400;2024-02-21T00:19:22;19.90;;;8.67;;
68947;SDS011;55996;49.546;7.400;2024-02-21T00:21:48;15.83;;;8.90;;
68947;SDS011;55996;49.546;7.400;2024-02-21T00:24:13;20.07;;;10.03;;
68947;SDS011;55996;49.546;7.400;2024-02-21T00:26:38;18.60;;;9.03;;
68947;SDS011;55996;49.546;7.400;2024-02-21T00:29:04;19.60;;;9.03;;
68947;SDS011;55996;49.546;7.400;2024-02-21T00:31:30;21.33;;;8.90;;
68947;SDS011;55996;49.546;7.400;2024-02-21T00:33:55;16.00;;;8.33;;
68947;SDS011;55996;49.546;7.400;2024-02-21T00:39:36;16.63;;;7.97;;
68947;SDS011;55996;49.546;7.400;2024-02-21T00:42:02;13.97;;;8.47;;
68947;SDS011;55996;49.546;7.400;2024-02-21T00:44:27;18.40;;;8.87;;
68947;SDS011;55996;49.546;7.400;2024-02-21T00:46:53;17.70;;;9.43;;
68947;SDS011;55996;49.546;7.400;2024-02-21T00:49:18;17.83;;;9.90;;
68947;SDS011;55996;49.546;7.400;2024-02-21T00:51:44;12.07;;;8.40;;
68947;SDS011;55996;49.546;7.400;2024-02-21T00:54:09;17.57;;;9.40;;
68947;SDS011;55996;49.546;7.400;2024-02-21T00:56:34;20.33;;;11.17;;
68947;SDS011;55996;49.546;7.400;2024-02-21T00:59:00;18.07;;;10.47;;
68947;SDS011;55996;49.546;7.400;2024-02-21T01:01:25;21.37;;;11.83;;
68947;SDS011;55996;49.546;7.400;2024-02-21T01:03:50;17.43;;;10.67;;
68947;SDS011;55996;49.546;7.400;2024-02-21T01:06:18;19.20;;;11.10;;
68947;SDS011;55996;49.546;7.400;2024-02-21T01:08:44;17.93;;;10.10;;
68947;SDS011;55996;49.546;7.400;2024-02-21T01:11:09;19.17;;;11.07;;
68947;SDS011;55996;49.546;7.400;2024-02-21T01:13:35;21.37;;;11.53;;
68947;SDS011;55996;49.546;7.400;2024-02-21T01:16:00;22.60;;;10.87;;
68947;SDS011;55996;49.546;7.400;2024-02-21T01:18:25;17.87;;;10.50;;
68947;SDS011;55996;49.546;7.400;2024-02-21T01:20:51;22.17;;;10.00;;
68947;SDS011;55996;49.546;7.400;2024-02-21T01:23:16;20.93;;;9.73;;
68947;SDS011;55996;49.546;7.400;2024-02-21T01:25:41;17.43;;;10.17;;
68947;SDS011;55996;49.546;7.400;2024-02-21T01:28:07;17.03;;;10.63;;
68947;SDS011;55996;49.546;7.400;2024-02-21T01:30:32;19.63;;;10.30;;
68947;SDS011;55996;49.546;7.400;2024-02-21T01:32:58;16.93;;;10.03;;
68947;SDS011;55996;49.546;7.400;2024-02-21T01:35:23;22.97;;;9.67;;
68947;SDS011;55996;49.546;7.400;2024-02-21T01:37:48;16.87;;;9.00;;
68947;SDS011;55996;49.546;7.400;2024-02-21T01:40:14;20.13;;;8.77;;
68947;SDS011;55996;49.546;7.400;2024-02-21T01:42:40;18.80;;;9.00;;
68947;SDS011;55996;49.546;7.400;2024-02-21T01:45:08;15.97;;;8.67;;
68947;SDS011;55996;49.546;7.400;2024-02-21T01:47:34;18.17;;;9.60;;
68947;SDS011;55996;49.546;7.400;2024-02-21T01:50:01;20.53;;;9.50;;
68947;SDS011;55996;49.546;7.400;2024-02-21T01:52:28;16.70;;;9.80;;
68947;SDS011;55996;49.546;7.400;2024-02-21T01:54:54;16.60;;;9.53;;
68947;SDS011;55996;49.546;7.400;2024-02-21T01:57:20;21.43;;;9.37;;
68947;SDS011;55996;49.546;7.400;2024-02-21T01:59:45;13.57;;;8.73;;
68947;SDS011;55996;49.546;7.400;2024-02-21T02:02:11;18.87;;;9.20;;
68947;SDS011;55996;49.546;7.400;2024-02-21T02:04:37;15.87;;;9.33;;
68947;SDS011;55996;49.546;7.400;2024-02-21T02:07:03;18.33;;;9.33;;
68947;SDS011;55996;49.546;7.400;2024-02-21T02:09:31;15.57;;;9.13;;
68947;SDS011;55996;49.546;7.400;2024-02-21T02:11:57;16.37;;;9.00;;
68947;SDS011;55996;49.546;7.400;2024-02-21T02:14:23;16.13;;;8.67;;
68947;SDS011;55996;49.546;7.400;2024-02-21T02:16:49;15.97;;;8.77;;
68947;SDS011;55996;49.546;7.400;2024-02-21T02:19:14;14.43;;;8.37;;
68947;SDS011;55996;49.546;7.400;2024-02-21T02:21:42;14.87;;;7.67;;
68947;SDS011;55996;49.546;7.400;2024-02-21T02:24:11;17.13;;;7.77;;
68947;SDS011;55996;49.546;7.400;2024-02-21T02:26:37;17.60;;;8.33;;
68947;SDS011;55996;49.546;7.400;2024-02-21T02:29:02;15.30;;;7.90;;
68947;SDS011;55996;49.546;7.400;2024-02-21T02:31:27;18.57;;;8.40;;
68947;SDS011;55996;49.546;7.400;2024-02-21T02:33:53;18.07;;;8.83;;
68947;SDS011;55996;49.546;7.400;2024-02-21T02:36:18;19.90;;;9.37;;
68947;SDS011;55996;49.546;7.400;2024-02-21T02:38:44;14.53;;;8.47;;
68947;SDS011;55996;49.546;7.400;2024-02-21T02:41:09;16.63;;;8.13;;
68947;SDS011;55996;49.546;7.400;2024-02-21T02:43:35;18.90;;;8.40;;
68947;SDS011;55996;49.546;7.400;2024-02-21T02:46:01;17.37;;;8.40;;
68947;SDS011;55996;49.546;7.400;2024-02-21T02:48:27;16.30;;;8.10;;
68947;SDS011;55996;49.546;7.400;2024-02-21T02:50:52;15.90;;;7.87;;
68947;SDS011;55996;49.546;7.400;2024-02-21T02:53:18;11.47;;;7.90;;
68947;SDS011;55996;49.546;7.400;2024-02-21T02:55:43;18.27;;;8.13;;
68947;SDS011;55996;49.546;7.400;2024-02-21T02:58:08;15.70;;;7.07;;
68947;SDS011;55996;49.546;7.400;2024-02-21T03:00:34;16.30;;;8.20;;
68947;SDS011;55996;49.546;7.400;2024-02-21T03:03:01;16.33;;;7.20;;
68947;SDS011;55996;49.546;7.400;2024-02-21T03:05:31;15.10;;;8.00;;
68947;SDS011;55996;49.546;7.400;2024-02-21T03:07:57;15.97;;;8.20;;
68947;SDS011;55996;49.546;7.400;2024-02-21T03:10:23;17.73;;;7.50;;
68947;SDS011;55996;49.546;7.400;2024-02-21T03:12:49;14.87;;;8.40;;
68947;SDS011;55996;49.546;7.400;2024-02-21T03:15:14;17.77;;;8.20;;
68947;SDS011;55996;49.546;7.400;2024-02-21T03:17:40;17.27;;;8.73;;
68947;SDS011;55996;49.546;7.400;2024-02-21T03:20:06;15.57;;;8.87;;
68947;SDS011;55996;49.546;7.400;2024-02-21T03:22:35;17.07;;;7.87;;
68947;SDS011;55996;49.546;7.400;2024-02-21T03:25:00;13.30;;;8.00;;
68947;SDS011;55996;49.546;7.400;2024-02-21T03:27:26;13.97;;;7.73;;
68947;SDS011;55996;49.546;7.400;2024-02-21T03:29:51;17.43;;;8.67;;
68947;SDS011;55996;49.546;7.400;2024-02-21T03:32:17;18.57;;;8.40;;
68947;SDS011;55996;49.546;7.400;2024-02-21T03:34:42;17.50;;;8.60;;
68947;SDS011;55996;49.546;7.400;2024-02-21T03:37:07;15.17;;;9.47;;
68947;SDS011;55996;49.546;7.400;2024-02-21T03:39:33;16.43;;;9.00;;
68947;SDS011;55996;49.546;7.400;2024-02-21T03:41:58;16.90;;;9.33;;
68947;SDS011;55996;49.546;7.400;2024-02-21T03:44:29;16.40;;;8.97;;
68947;SDS011;55996;49.546;7.400;2024-02-21T03:47:01;18.70;;;10.00;;
68947;SDS011;55996;49.546;7.400;2024-02-21T03:49:26;17.93;;;9.87;;
68947;SDS011;55996;49.546;7.400;2024-02-21T03:51:52;15.90;;;9.50;;
68947;SDS011;55996;49.546;7.400;2024-02-21T03:54:17;16.73;;;9.67;;
68947;SDS011;55996;49.546;7.400;2024-02-21T03:56:43;17.43;;;10.00;;
68947;SDS011;55996;49.546;7.400;2024-02-21T03:59:08;22.47;;;10.83;;
68947;SDS011;55996;49.546;7.400;2024-02-21T04:01:34;17.93;;;11.50;;
68947;SDS011;55996;49.546;7.400;2024-02-21T04:04:00;20.10;;;10.93;;
68947;SDS011;55996;49.546;7.400;2024-02-21T04:06:25;20.57;;;11.53;;
68947;SDS011;55996;49.546;7.400;2024-02-21T04:08:50;18.73;;;12.30;;
68947;SDS011;55996;49.546;7.400;2024-02-21T04:11:16;20.63;;;12.37;;
68947;SDS011;55996;49.546;7.400;2024-02-21T04:13:42;20.47;;;13.27;;
68947;SDS011;55996;49.546;7.400;2024-02-21T04:16:08;22.03;;;13.37;;
68947;SDS011;55996;49.546;7.400;2024-02-21T04:18:33;23.57;;;13.60;;
68947;SDS011;55996;49.546;7.400;2024-02-21T04:20:58;20.03;;;11.90;;
68947;SDS011;55996;49.546;7.400;2024-02-21T04:23:24;19.40;;;11.97;;
68947;SDS011;55996;49.546;7.400;2024-02-21T04:25:49;18.23;;;10.33;;
68947;SDS011;55996;49.546;7.400;2024-02-21T04:28:14;16.63;;;8.27;;
68947;SDS011;55996;49.546;7.400;2024-02-21T04:30:40;17.13;;;9.17;;
68947;SDS011;55996;49.546;7.400;2024-02-21T04:33:05;18.87;;;9.27;;
68947;SDS011;55996;49.546;7.400;2024-02-21T04:35:30;17.07;;;9.10;;
68947;SDS011;55996;49.546;7.400;2024-02-21T04:37:56;14.53;;;9.60;;
68947;SDS011;55996;49.546;7.400;2024-02-21T04:40:21;21.83;;;10.93;;
68947;SDS011;55996;49.546;7.400;2024-02-21T04:42:47;16.17;;;10.57;;
68947;SDS011;55996;49.546;7.400;2024-02-21T04:45:12;19.97;;;12.07;;
68947;SDS011;55996;49.546;7.400;2024-02-21T04:47:37;21.33;;;11.17;;
68947;SDS011;55996;49.546;7.400;2024-02-21T04:50:03;21.90;;;11.20;;
68947;SDS011;55996;49.546;7.400;2024-02-21T04:52:28;18.17;;;11.63;;
68947;SDS011;55996;49.546;7.400;2024-02-21T04:54:54;19.47;;;11.63;;
68947;SDS011;55996;49.546;7.400;2024-02-21T04:57:20;19.30;;;10.50;;
68947;SDS011;55996;49.546;7.400;2024-02-21T04:59:45;21.37;;;11.90;;
68947;SDS011;55996;49.546;7.400;2024-02-21T05:02:12;21.70;;;11.53;;
68947;SDS011;55996;49.546;7.400;2024-02-21T05:04:47;18.57;;;11.10;;
68947;SDS011;55996;49.546;7.400;2024-02-21T05:07:13;16.83;;;10.83;;
68947;SDS011;55996;49.546;7.400;2024-02-21T05:09:38;20.43;;;9.73;;
68947;SDS011;55996;49.546;7.400;2024-02-21T05:12:04;13.90;;;7.97;;
68947;SDS011;55996;49.546;7.400;2024-02-21T05:14:29;19.80;;;7.03;;
68947;SDS011;55996;49.546;7.400;2024-02-21T05:16:54;15.97;;;7.20;;
68947;SDS011;55996;49.546;7.400;2024-02-21T05:19:20;12.67;;;6.20;;
68947;SDS011;55996;49.546;7.400;2024-02-21T05:21:46;13.13;;;6.33;;
68947;SDS011;55996;49.546;7.400;2024-02-21T05:24:11;13.97;;;6.27;;
68947;SDS011;55996;49.546;7.400;2024-02-21T05:26:37;16.97;;;6.27;;
68947;SDS011;55996;49.546;7.400;2024-02-21T05:29:02;18.00;;;6.23;;
68947;SDS011;55996;49.546;7.400;2024-02-21T05:34:18;13.57;;;5.93;;
68947;SDS011;55996;49.546;7.400;2024-02-21T05:36:44;14.67;;;5.13;;
68947;SDS011;55996;49.546;7.400;2024-02-21T05:39:10;10.00;;;5.13;;
68947;SDS011;55996;49.546;7.400;2024-02-21T05:41:36;13.27;;;5.43;;
68947;SDS011;55996;49.546;7.400;2024-02-21T05:44:01;11.03;;;4.90;;
68947;SDS011;55996;49.546;7.400;2024-02-21T05:46:27;13.67;;;4.80;;
68947;SDS011;55996;49.546;7.400;2024-02-21T05:48:52;9.60;;;5.20;;
68947;SDS011;55996;49.546;7.400;2024-02-21T05:51:18;14.37;;;5.53;;
68947;SDS011;55996;49.546;7.400;2024-02-21T05:53:43;12.10;;;5.50;;
68947;SDS011;55996;49.546;7.400;2024-02-21T05:56:12;11.27;;;4.80;;
68947;SDS011;55996;49.546;7.400;2024-02-21T05:58:38;9.80;;;4.57;;
68947;SDS011;55996;49.546;7.400;2024-02-21T06:01:03;11.93;;;5.20;;
68947;SDS011;55996;49.546;7.400;2024-02-21T06:03:30;11.33;;;5.20;;
68947;SDS011;55996;49.546;7.400;2024-02-21T06:05:55;15.03;;;5.27;;
68947;SDS011;55996;49.546;7.400;2024-02-21T06:08:21;9.10;;;4.43;;
68947;SDS011;55996;49.546;7.400;2024-02-21T06:10:46;8.70;;;4.40;;
68947;SDS011;55996;49.546;7.400;2024-02-21T06:13:29;7.93;;;4.43;;
68947;SDS011;55996;49.546;7.400;2024-02-21T06:15:54;11.20;;;4.93;;
68947;SDS011;55996;49.546;7.400;2024-02-21T06:18:20;13.60;;;4.40;;
68947;SDS011;55996;49.546;7.400;2024-02-21T06:20:46;10.73;;;5.30;;
68947;SDS011;55996;49.546;7.400;2024-02-21T06:23:12;10.43;;;4.70;;
68947;SDS011;55996;49.546;7.400;2024-02-21T06:25:38;11.63;;;5.40;;
68947;SDS011;55996;49.546;7.400;2024-02-21T06:28:04;12.17;;;4.80;;
68947;SDS011;55996;49.546;7.400;2024-02-21T06:30:30;10.80;;;4.70;;
68947;SDS011;55996;49.546;7.400;2024-02-21T06:32:55;12.40;;;5.27;;
68947;SDS011;55996;49.546;7.400;2024-02-21T06:35:21;8.53;;;4.23;;
68947;SDS011;55996;49.546;7.400;2024-02-21T06:37:46;8.77;;;4.20;;
68947;SDS011;55996;49.546;7.400;2024-02-21T06:40:16;10.60;;;5.27;;
68947;SDS011;55996;49.546;7.400;2024-02-21T06:42:41;15.27;;;4.60;;
68947;SDS011;55996;49.546;7.400;2024-02-21T06:45:07;10.23;;;4.60;;
68947;SDS011;55996;49.546;7.400;2024-02-21T06:47:32;11.87;;;4.67;;
68947;SDS011;55996;49.546;7.400;2024-02-21T06:49:58;11.87;;;4.47;;
68947;SDS011;55996;49.546;7.400;2024-02-21T06:52:23;8.33;;;4.70;;
68947;SDS011;55996;49.546;7.400;2024-02-21T06:54:49;12.07;;;4.77;;
68947;SDS011;55996;49.546;7.400;2024-02-21T06:57:15;11.27;;;4.87;;
68947;SDS011;55996;49.546;7.400;2024-02-21T06:59:41;10.73;;;4.47;;
68947;SDS011;55996;49.546;7.400;2024-02-21T07:02:07;12.23;;;4.90;;
68947;SDS011;55996;49.546;7.400;2024-02-21T07:04:32;11.53;;;4.53;;
68947;SDS011;55996;49.546;7.400;2024-02-21T07:06:58;14.57;;;5.63;;
68947;SDS011;55996;49.546;7.400;2024-02-21T07:09:23;11.30;;;4.27;;
68947;SDS011;55996;49.546;7.400;2024-02-21T07:11:49;12.13;;;5.43;;
68947;SDS011;55996;49.546;7.400;2024-02-21T07:14:14;12.57;;;4.90;;
68947;SDS011;55996;49.546;7.400;2024-02-21T07:16:40;14.03;;;5.00;;
68947;SDS011;55996;49.546;7.400;2024-02-21T07:19:06;12.20;;;4.87;;
68947;SDS011;55996;49.546;7.400;2024-02-21T07:21:31;12.33;;;4.97;;
68947;SDS011;55996;49.546;7.400;2024-02-21T07:23:57;9.13;;;4.27;;
68947;SDS011;55996;49.546;7.400;2024-02-21T07:26:22;11.00;;;4.57;;
68947;SDS011;55996;49.546;7.400;2024-02-21T07:28:48;13.87;;;5.17;;
68947;SDS011;55996;49.546;7.400;2024-02-21T07:31:13;11.20;;;5.13;;
68947;SDS011;55996;49.546;7.400;2024-02-21T07:33:38;11.50;;;5.07;;
68947;SDS011;55996;49.546;7.400;2024-02-21T07:36:07;12.07;;;4.67;;
68947;SDS011;55996;49.546;7.400;2024-02-21T07:38:35;11.47;;;4.70;;
68947;SDS011;55996;49.546;7.400;2024-02-21T07:41:00;10.97;;;5.30;;
68947;SDS011;55996;49.546;7.400;2024-02-21T07:43:25;12.00;;;4.90;;
68947;SDS011;55996;49.546;7.400;2024-02-21T07:45:51;16.40;;;5.20;;
68947;SDS011;55996;49.546;7.400;2024-02-21T07:48:21;13.00;;;5.47;;
68947;SDS011;55996;49.546;7.400;2024-02-21T07:50:49;13.23;;;5.37;;
68947;SDS011;55996;49.546;7.400;2024-02-21T07:53:15;13.47;;;5.30;;
68947;SDS011;55996;49.546;7.400;2024-02-21T07:55:41;14.50;;;5.50;;
68947;SDS011;55996;49.546;7.400;2024-02-21T07:58:06;15.43;;;5.47;;
68947;SDS011;55996;49.546;7.400;2024-02-21T08:00:32;13.90;;;6.00;;
68947;SDS011;55996;49.546;7.400;2024-02-21T08:02:57;8.77;;;4.73;;
68947;SDS011;55996;49.546;7.400;2024-02-21T08:05:23;18.43;;;6.00;;
68947;SDS011;55996;49.546;7.400;2024-02-21T08:07:48;16.63;;;5.13;;
68947;SDS011;55996;49.546;7.400;2024-02-21T08:10:14;9.83;;;4.87;;
68947;SDS011;55996;49.546;7.400;2024-02-21T08:12:39;15.33;;;5.93;;
68947;SDS011;55996;49.546;7.400;2024-02-21T08:15:05;14.97;;;5.80;;
68947;SDS011;55996;49.546;7.400;2024-02-21T08:17:33;13.23;;;5.37;;
68947;SDS011;55996;49.546;7.400;2024-02-21T08:19:58;12.73;;;5.10;;
68947;SDS011;55996;49.546;7.400;2024-02-21T08:22:23;12.53;;;4.80;;
68947;SDS011;55996;49.546;7.400;2024-02-21T08:24:49;12.57;;;5.47;;
68947;SDS011;55996;49.546;7.400;2024-02-21T08:27:14;11.93;;;4.87;;
68947;SDS011;55996;49.546;7.400;2024-02-21T08:29:39;11.73;;;5.23;;
68947;SDS011;55996;49.546;7.400;2024-02-21T08:32:05;13.07;;;4.90;;
68947;SDS011;55996;49.546;7.400;2024-02-21T08:34:30;13.97;;;4.40;;
68947;SDS011;55996;49.546;7.400;2024-02-21T08:36:59;11.17;;;4.47;;
68947;SDS011;55996;49.546;7.400;2024-02-21T08:39:24;12.13;;;4.50;;
68947;SDS011;55996;49.546;7.400;2024-02-21T08:41:50;15.27;;;4.87;;
68947;SDS011;55996;49.546;7.400;2024-02-21T08:44:16;8.43;;;4.60;;
68947;SDS011;55996;49.546;7.400;2024-02-21T08:46:41;12.23;;;4.60;;
68947;SDS011;55996;49.546;7.400;2024-02-21T08:49:07;11.77;;;4.30;;
68947;SDS011;55996;49.546;7.400;2024-02-21T08:51:32;14.53;;;4.20;;
68947;SDS011;55996;49.546;7.400;2024-02-21T08:53:58;6.17;;;3.77;;
68947;SDS011;55996;49.546;7.400;2024-02-21T08:56:25;10.70;;;4.07;;
68947;SDS011;55996;49.546;7.400;2024-02-21T08:58:50;14.33;;;4.30;;
68947;SDS011;55996;49.546;7.400;2024-02-21T09:01:15;16.87;;;4.73;;
68947;SDS011;55996;49.546;7.400;2024-02-21T09:03:41;11.57;;;4.30;;
68947;SDS011;55996;49.546;7.400;2024-02-21T09:06:07;11.00;;;3.97;;
68947;SDS011;55996;49.546;7.400;2024-02-21T09:08:34;14.00;;;4.40;;
68947;SDS011;55996;49.546;7.400;2024-02-21T09:11:00;8.83;;;4.20;;
68947;SDS011;55996;49.546;7.400;2024-02-21T09:13:26;10.43;;;4.37;;
68947;SDS011;55996;49.546;7.400;2024-02-21T09:15:51;15.23;;;4.37;;
68947;SDS011;55996;49.546;7.400;2024-02-21T09:18:17;13.50;;;4.77;;
68947;SDS011;55996;49.546;7.400;2024-02-21T09:20:43;20.70;;;5.20;;
68947;SDS011;55996;49.546;7.400;2024-02-21T09:23:08;12.43;;;4.37;;
68947;SDS011;55996;49.546;7.400;2024-02-21T09:25:34;16.53;;;4.60;;
68947;SDS011;55996;49.546;7.400;2024-02-21T09:28:00;17.10;;;4.13;;
68947;SDS011;55996;49.546;7.400;2024-02-21T09:30:26;13.60;;;4.63;;
68947;SDS011;55996;49.546;7.400;2024-02-21T09:32:52;16.60;;;4.80;;
68947;SDS011;55996;49.546;7.400;2024-02-21T09:35:17;14.33;;;4.43;;
68947;SDS011;55996;49.546;7.400;2024-02-21T09:37:43;15.83;;;5.00;;
68947;SDS011;55996;49.546;7.400;2024-02-21T09:40:09;12.60;;;4.57;;
68947;SDS011;55996;49.546;7.400;2024-02-21T09:45:46;15.57;;;4.63;;
68947;SDS011;55996;49.546;7.400;2024-02-21T09:50:45;11.67;;;4.97;;
68947;SDS011;55996;49.546;7.400;2024-02-21T09:53:14;10.43;;;4.83;;
68947;SDS011;55996;49.546;7.400;2024-02-21T09:55:40;14.17;;;4.73;;
68947;SDS011;55996;49.546;7.400;2024-02-21T09:58:08;13.47;;;4.90;;
68947;SDS011;55996;49.546;7.400;2024-02-21T10:00:37;16.47;;;5.13;;
68947;SDS011;55996;49.546;7.400;2024-02-21T10:03:03;12.33;;;5.10;;
68947;SDS011;55996;49.546;7.400;2024-02-21T10:05:33;13.27;;;4.87;;
68947;SDS011;55996;49.546;7.400;2024-02-21T10:08:00;17.37;;;6.37;;
68947;SDS011;55996;49.546;7.400;2024-02-21T10:10:26;14.83;;;5.30;;
68947;SDS011;55996;49.546;7.400;2024-02-21T10:12:52;11.13;;;5.13;;
68947;SDS011;55996;49.546;7.400;2024-02-21T10:15:21;16.13;;;5.10;;
68947;SDS011;55996;49.546;7.400;2024-02-21T10:17:58;13.30;;;5.17;;
68947;SDS011;55996;49.546;7.400;2024-02-21T10:20:24;13.57;;;5.40;;
68947;SDS011;55996;49.546;7.400;2024-02-21T10:22:59;12.47;;;5.07;;
68947;SDS011;55996;49.546;7.400;2024-02-21T10:25:33;16.50;;;5.57;;
68947;SDS011;55996;49.546;7.400;2024-02-21T10:27:59;14.13;;;5.40;;
68947;SDS011;55996;49.546;7.400;2024-02-21T10:30:24;17.40;;;5.47;;
68947;SDS011;55996;49.546;7.400;2024-02-21T10:32:53;11.97;;;5.37;;
68947;SDS011;55996;49.546;7.400;2024-02-21T10:35:26;13.83;;;5.03;;
68947;SDS011;55996;49.546;7.400;2024-02-21T10:37:55;9.93;;;4.83;;
68947;SDS011;55996;49.546;7.400;2024-02-21T10:40:28;12.57;;;4.93;;
68947;SDS011;55996;49.546;7.400;2024-02-21T10:42:56;13.70;;;5.27;;
68947;SDS011;55996;49.546;7.400;2024-02-21T10:45:25;13.73;;;4.87;;
68947;SDS011;55996;49.546;7.400;2024-02-21T10:48:09;14.87;;;4.80;;
68947;SDS011;55996;49.546;7.400;2024-02-21T10:50:41;12.53;;;4.73;;
68947;SDS011;55996;49.546;7.400;2024-02-21T10:54:06;11.10;;;4.70;;
68947;SDS011;55996;49.546;7.400;2024-02-21T10:56:26;9.53;;;4.40;;
68947;SDS011;55996;49.546;7.400;2024-02-21T10:58:54;13.33;;;5.73;;
68947;SDS011;55996;49.546;7.400;2024-02-21T11:01:25;15.23;;;5.50;;
68947;SDS011;55996;49.546;7.400;2024-02-21T11:03:53;7.97;;;4.30;;
68947;SDS011;55996;49.546;7.400;2024-02-21T11:06:20;10.97;;;4.30;;
68947;SDS011;55996;49.546;7.400;2024-02-21T11:08:47;13.10;;;4.83;;
68947;SDS011;55996;49.546;7.400;2024-02-21T11:11:14;13.57;;;4.77;;
68947;SDS011;55996;49.546;7.400;2024-02-21T11:13:42;11.90;;;4.40;;
68947;SDS011;55996;49.546;7.400;2024-02-21T11:18:34;11.73;;;4.37;;
68947;SDS011;55996;49.546;7.400;2024-02-21T11:21:00;13.23;;;5.27;;
68947;SDS011;55996;49.546;7.400;2024-02-21T11:23:26;12.07;;;4.40;;
68947;SDS011;55996;49.546;7.400;2024-02-21T11:26:03;11.43;;;4.37;;
68947;SDS011;55996;49.546;7.400;2024-02-21T11:28:35;8.40;;;3.67;;
68947;SDS011;55996;49.546;7.400;2024-02-21T11:31:11;8.10;;;4.20;;
68947;SDS011;55996;49.546;7.400;2024-02-21T11:33:41;13.97;;;4.47;;
68947;SDS011;55996;49.546;7.400;2024-02-21T11:36:08;10.30;;;4.07;;
68947;SDS011;55996;49.546;7.400;2024-02-21T11:38:33;9.47;;;4.00;;
68947;SDS011;55996;49.546;7.400;2024-02-21T11:40:59;8.07;;;4.60;;
68947;SDS011;55996;49.546;7.400;2024-02-21T11:43:24;10.60;;;3.77;;
68947;SDS011;55996;49.546;7.400;2024-02-21T11:45:50;8.87;;;4.10;;
68947;SDS011;55996;49.546;7.400;2024-02-21T11:48:23;10.40;;;4.63;;
68947;SDS011;55996;49.546;7.400;2024-02-21T11:50:55;8.30;;;3.80;;
68947;SDS011;55996;49.546;7.400;2024-02-21T11:53:22;9.00;;;3.97;;
68947;SDS011;55996;49.546;7.400;2024-02-21T11:55:47;8.97;;;3.70;;
68947;SDS011;55996;49.546;7.400;2024-02-21T11:58:13;13.83;;;4.07;;
68947;SDS011;55996;49.546;7.400;2024-02-21T12:00:40;11.03;;;3.97;;
68947;SDS011;55996;49.546;7.400;2024-02-21T12:03:05;9.90;;;3.90;;
68947;SDS011;55996;49.546;7.400;2024-02-21T12:05:31;9.97;;;3.57;;
68947;SDS011;55996;49.546;7.400;2024-02-21T12:07:57;9.80;;;3.60;;
68947;SDS011;55996;49.546;7.400;2024-02-21T12:10:25;11.20;;;3.80;;
68947;SDS011;55996;49.546;7.400;2024-02-21T12:12:52;9.03;;;3.67;;
68947;SDS011;55996;49.546;7.400;2024-02-21T12:15:19;11.00;;;3.37;;
68947;SDS011;55996;49.546;7.400;2024-02-21T12:17:45;8.87;;;3.73;;
68947;SDS011;55996;49.546;7.400;2024-02-21T12:20:10;9.50;;;3.50;;
68947;SDS011;55996;49.546;7.400;2024-02-21T12:22:36;5.60;;;2.60;;
68947;SDS011;55996;49.546;7.400;2024-02-21T12:25:24;9.37;;;3.47;;
68947;SDS011;55996;49.546;7.400;2024-02-21T12:27:53;10.50;;;3.87;;
68947;SDS011;55996;49.546;7.400;2024-02-21T12:30:19;8.87;;;3.57;;
68947;SDS011;55996;49.546;7.400;2024-02-21T12:32:45;13.67;;;3.50;;
68947;SDS011;55996;49.546;7.400;2024-02-21T12:35:11;9.90;;;3.77;;
68947;SDS011;55996;49.546;7.400;2024-02-21T12:37:37;8.57;;;3.60;;
68947;SDS011;55996;49.546;7.400;2024-02-21T12:40:04;9.03;;;3.60;;
68947;SDS011;55996;49.546;7.400;2024-02-21T12:42:33;9.03;;;3.77;;
68947;SDS011;55996;49.546;7.400;2024-02-21T12:45:00;7.50;;;2.87;;
68947;SDS011;55996;49.546;7.400;2024-02-21T12:47:25;6.23;;;3.10;;
68947;SDS011;55996;49.546;7.400;2024-02-21T12:49:51;8.13;;;3.37;;
68947;SDS011;55996;49.546;7.400;2024-02-21T12:52:17;8.90;;;3.20;;
68947;SDS011;55996;49.546;7.400;2024-02-21T12:54:43;6.50;;;3.17;;
68947;SDS011;55996;49.546;7.400;2024-02-21T12:57:08;9.80;;;3.40;;
68947;SDS011;55996;49.546;7.400;2024-02-21T12:59:33;11.60;;;3.53;;
68947;SDS011;55996;49.546;7.400;2024-02-21T13:01:59;6.63;;;3.20;;
68947;SDS011;55996;49.546;7.400;2024-02-21T13:04:24;5.20;;;2.93;;
68947;SDS011;55996;49.546;7.400;2024-02-21T13:06:50;9.03;;;3.80;;
68947;SDS011;55996;49.546;7.400;2024-02-21T13:09:15;6.20;;;3.30;;
68947;SDS011;55996;49.546;7.400;2024-02-21T13:11:41;7.60;;;3.10;;
68947;SDS011;55996;49.546;7.400;2024-02-21T13:14:08;9.60;;;3.60;;
68947;SDS011;55996;49.546;7.400;2024-02-21T13:16:33;10.83;;;3.53;;
68947;SDS011;55996;49.546;7.400;2024-02-21T13:19:07;9.93;;;3.33;;
68947;SDS011;55996;49.546;7.400;2024-02-21T13:21:33;10.20;;;3.37;;
68947;SDS011;55996;49.546;7.400;2024-02-21T13:23:59;6.77;;;3.33;;
68947;SDS011;55996;49.546;7.400;2024-02-21T13:26:25;8.13;;;3.60;;
68947;SDS011;55996;49.546;7.400;2024-02-21T13:28:50;6.73;;;3.17;;
68947;SDS011;55996;49.546;7.400;2024-02-21T13:31:16;8.97;;;3.50;;
68947;SDS011;55996;49.546;7.400;2024-02-21T13:33:41;7.20;;;3.60;;
68947;SDS011;55996;49.546;7.400;2024-02-21T13:36:07;9.10;;;3.30;;
68947;SDS011;55996;49.546;7.400;2024-02-21T13:38:33;9.87;;;3.07;;
68947;SDS011;55996;49.546;7.400;2024-02-21T13:40:58;10.00;;;3.37;;
68947;SDS011;55996;49.546;7.400;2024-02-21T13:43:25;7.13;;;3.40;;
68947;SDS011;55996;49.546;7.400;2024-02-21T13:45:57;9.83;;;3.23;;
68947;SDS011;55996;49.546;7.400;2024-02-21T13:48:24;9.07;;;3.17;;
68947;SDS011;55996;49.546;7.400;2024-02-21T13:50:49;10.97;;;3.73;;
68947;SDS011;55996;49.546;7.400;2024-02-21T13:53:15;8.80;;;3.57;;
68947;SDS011;55996;49.546;7.400;2024-02-21T13:55:43;6.07;;;2.97;;
68947;SDS011;55996;49.546;7.400;2024-02-21T13:58:09;8.17;;;3.70;;
68947;SDS011;55996;49.546;7.400;2024-02-21T14:00:34;8.50;;;3.57;;
68947;SDS011;55996;49.546;7.400;2024-02-21T14:03:01;9.00;;;3.13;;
68947;SDS011;55996;49.546;7.400;2024-02-21T14:05:26;8.77;;;3.90;;
68947;SDS011;55996;49.546;7.400;2024-02-21T14:07:52;7.40;;;3.43;;
68947;SDS011;55996;49.546;7.400;2024-02-21T14:10:19;7.57;;;3.47;;
68947;SDS011;55996;49.546;7.400;2024-02-21T14:12:45;9.40;;;3.40;;
68947;SDS011;55996;49.546;7.400;2024-02-21T14:15:10;8.47;;;3.40;;
68947;SDS011;55996;49.546;7.400;2024-02-21T14:17:36;7.00;;;3.30;;
68947;SDS011;55996;49.546;7.400;2024-02-21T14:20:02;8.67;;;3.77;;
68947;SDS011;55996;49.546;7.400;2024-02-21T14:22:29;10.33;;;3.40;;
68947;SDS011;55996;49.546;7.400;2024-02-21T14:24:55;7.10;;;3.30;;
68947;SDS011;55996;49.546;7.400;2024-02-21T14:27:21;8.10;;;3.33;;
68947;SDS011;55996;49.546;7.400;2024-02-21T14:29:47;7.37;;;3.40;;
68947;SDS011;55996;49.546;7.400;2024-02-21T14:32:14;9.23;;;3.57;;
68947;SDS011;55996;49.546;7.400;2024-02-21T14:34:40;5.13;;;2.87;;
68947;SDS011;55996;49.546;7.400;2024-02-21T14:37:05;11.00;;;3.40;;
68947;SDS011;55996;49.546;7.400;2024-02-21T14:39:30;5.40;;;3.30;;
68947;SDS011;55996;49.546;7.400;2024-02-21T14:41:58;9.10;;;3.60;;
68947;SDS011;55996;49.546;7.400;2024-02-21T14:44:24;5.50;;;3.07;;
68947;SDS011;55996;49.546;7.400;2024-02-21T14:46:50;9.27;;;3.53;;